<?xml version="1.0" encoding="UTF-8" standalone="no" ?><gpx xmlns="http://www.topografix.com/GPX/1/1" xmlns:gpxx="http://www.garmin.com/xmlschemas/GpxExtensions/v3" xmlns:wptx1="http://www.garmin.com/xmlschemas/WaypointExtension/v1" xmlns:gpxtpx="http://www.garmin.com/xmlschemas/TrackPointExtension/v1" creator="GuideVTT.com" version="1.1" xmlns:xsi="http://www.w3.org/2001/XMLSchema-instance" xsi:schemaLocation="http://www.topografix.com/GPX/1/1 http://www.topografix.com/GPX/1/1/gpx.xsd http://www.garmin.com/xmlschemas/GpxExtensions/v3 http://www8.garmin.com/xmlschemas/GpxExtensionsv3.xsd http://www.garmin.com/xmlschemas/WaypointExtension/v1 http://www8.garmin.com/xmlschemas/WaypointExtensionv1.xsd http://www.garmin.com/xmlschemas/TrackPointExtension/v1 http://www.garmin.com/xmlschemas/TrackPointExtensionv1.xsd">
<metadata><link href="http://www.garmin.com"><text>Garmin International</text></link><time>2013-06-22T15:13:50Z</time></metadata>
<trk><name>essai_bex-pontdenant.dr.gpx</name><extensions><gpxx:TrackExtension><gpxx:DisplayColor>Cyan</gpxx:DisplayColor></gpxx:TrackExtension></extensions><trkseg>
<trkpt lat="46.26140518" lon="7.02905338"><ele></ele><time>2014-6-26T4:56:42Z</time></trkpt>
<trkpt lat="46.26060723" lon="7.03006018"><ele></ele><time>2014-6-26T4:56:45Z</time></trkpt>
<trkpt lat="46.26017168" lon="7.03068492"><ele></ele><time>2014-6-26T4:56:48Z</time></trkpt>
<trkpt lat="46.25920001" lon="7.03107230"><ele></ele><time>2014-6-26T4:56:51Z</time></trkpt>
<trkpt lat="46.25877820" lon="7.03103762"><ele></ele><time>2014-6-26T4:56:54Z</time></trkpt>
<trkpt lat="46.25857149" lon="7.03087718"><ele></ele><time>2014-6-26T4:56:57Z</time></trkpt>
<trkpt lat="46.25829982" lon="7.03089931"><ele></ele><time>2014-6-26T4:57:0Z</time></trkpt>
<trkpt lat="46.25804403" lon="7.03090547"><ele></ele><time>2014-6-26T4:57:3Z</time></trkpt>
<trkpt lat="46.25781302" lon="7.03091579"><ele></ele><time>2014-6-26T4:57:6Z</time></trkpt>
<trkpt lat="46.25753320" lon="7.03092250"><ele></ele><time>2014-6-26T4:57:9Z</time></trkpt>
<trkpt lat="46.25727611" lon="7.03089381"><ele></ele><time>2014-6-26T4:57:12Z</time></trkpt>
<trkpt lat="46.25701886" lon="7.03076329"><ele></ele><time>2014-6-26T4:57:15Z</time></trkpt>
<trkpt lat="46.25673675" lon="7.03056101"><ele></ele><time>2014-6-26T4:57:18Z</time></trkpt>
<trkpt lat="46.25654824" lon="7.03035662"><ele></ele><time>2014-6-26T4:57:21Z</time></trkpt>
<trkpt lat="46.25635864" lon="7.03008002"><ele></ele><time>2014-6-26T4:57:24Z</time></trkpt>
<trkpt lat="46.25624271" lon="7.02981490"><ele></ele><time>2014-6-26T4:57:27Z</time></trkpt>
<trkpt lat="46.25603343" lon="7.02952021"><ele></ele><time>2014-6-26T4:57:30Z</time></trkpt>
<trkpt lat="46.25586808" lon="7.02924678"><ele></ele><time>2014-6-26T4:57:33Z</time></trkpt>
<trkpt lat="46.25568094" lon="7.02898176"><ele></ele><time>2014-6-26T4:57:36Z</time></trkpt>
<trkpt lat="46.25549366" lon="7.02871729"><ele></ele><time>2014-6-26T4:57:39Z</time></trkpt>
<trkpt lat="46.25528155" lon="7.02844799"><ele></ele><time>2014-6-26T4:57:42Z</time></trkpt>
<trkpt lat="46.25511662" lon="7.02817880"><ele></ele><time>2014-6-26T4:57:45Z</time></trkpt>
<trkpt lat="46.25502218" lon="7.02783858"><ele></ele><time>2014-6-26T4:57:48Z</time></trkpt>
<trkpt lat="46.25499747" lon="7.02745619"><ele></ele><time>2014-6-26T4:57:51Z</time></trkpt>
<trkpt lat="46.25499605" lon="7.02710622"><ele></ele><time>2014-6-26T4:57:54Z</time></trkpt>
<trkpt lat="46.25497543" lon="7.02678208"><ele></ele><time>2014-6-26T4:57:57Z</time></trkpt>
<trkpt lat="46.25476386" lon="7.02658835"><ele></ele><time>2014-6-26T4:58:0Z</time></trkpt>
<trkpt lat="46.25452652" lon="7.02669196"><ele></ele><time>2014-6-26T4:58:3Z</time></trkpt>
<trkpt lat="46.25428889" lon="7.02682579"><ele></ele><time>2014-6-26T4:58:6Z</time></trkpt>
<trkpt lat="46.25402765" lon="7.02681622"><ele></ele><time>2014-6-26T4:58:9Z</time></trkpt>
<trkpt lat="46.25376730" lon="7.02680238"><ele></ele><time>2014-6-26T4:58:12Z</time></trkpt>
<trkpt lat="46.25362520" lon="7.02653340"><ele></ele><time>2014-6-26T4:58:15Z</time></trkpt>
<trkpt lat="46.25362472" lon="7.02616538"><ele></ele><time>2014-6-26T4:58:18Z</time></trkpt>
<trkpt lat="46.25352971" lon="7.02579057"><ele></ele><time>2014-6-26T4:58:21Z</time></trkpt>
<trkpt lat="46.25333975" lon="7.02545029"><ele></ele><time>2014-6-26T4:58:24Z</time></trkpt>
<trkpt lat="46.25322146" lon="7.02517362"><ele></ele><time>2014-6-26T4:58:27Z</time></trkpt>
<trkpt lat="46.25312647" lon="7.02479712"><ele></ele><time>2014-6-26T4:58:30Z</time></trkpt>
<trkpt lat="46.25293612" lon="7.02449137"><ele></ele><time>2014-6-26T4:58:33Z</time></trkpt>
<trkpt lat="46.25286195" lon="7.02412412"><ele></ele><time>2014-6-26T4:58:36Z</time></trkpt>
<trkpt lat="46.25271714" lon="7.02378563"><ele></ele><time>2014-6-26T4:58:39Z</time></trkpt>
<trkpt lat="46.25254905" lon="7.02351273"><ele></ele><time>2014-6-26T4:58:42Z</time></trkpt>
<trkpt lat="46.25235701" lon="7.02323896"><ele></ele><time>2014-6-26T4:58:45Z</time></trkpt>
<trkpt lat="46.25216530" lon="7.02303297"><ele></ele><time>2014-6-26T4:58:48Z</time></trkpt>
<trkpt lat="46.25194915" lon="7.02282729"><ele></ele><time>2014-6-26T4:58:51Z</time></trkpt>
<trkpt lat="46.25173305" lon="7.02265564"><ele></ele><time>2014-6-26T4:58:54Z</time></trkpt>
<trkpt lat="46.25146916" lon="7.02251826"><ele></ele><time>2014-6-26T4:58:57Z</time></trkpt>
<trkpt lat="46.25120564" lon="7.02251876"><ele></ele><time>2014-6-26T4:59:0Z</time></trkpt>
<trkpt lat="46.25098983" lon="7.02245006"><ele></ele><time>2014-6-26T4:59:3Z</time></trkpt>
<trkpt lat="46.25082159" lon="7.02217378"><ele></ele><time>2014-6-26T4:59:6Z</time></trkpt>
<trkpt lat="46.25077312" lon="7.02179339"><ele></ele><time>2014-6-26T4:59:9Z</time></trkpt>
<trkpt lat="46.25074882" lon="7.02137819"><ele></ele><time>2014-6-26T4:59:12Z</time></trkpt>
<trkpt lat="46.25070120" lon="7.02106668"><ele></ele><time>2014-6-26T4:59:15Z</time></trkpt>
<trkpt lat="46.25063045" lon="7.02068604"><ele></ele><time>2014-6-26T4:59:18Z</time></trkpt>
<trkpt lat="46.25053123" lon="7.02040916"><ele></ele><time>2014-6-26T4:59:21Z</time></trkpt>
<trkpt lat="46.25043557" lon="7.02002834"><ele></ele><time>2014-6-26T4:59:24Z</time></trkpt>
<trkpt lat="46.25043646" lon="7.01964773"><ele></ele><time>2014-6-26T4:59:27Z</time></trkpt>
<trkpt lat="46.25043685" lon="7.01933636"><ele></ele><time>2014-6-26T4:59:30Z</time></trkpt>
<trkpt lat="46.25043728" lon="7.01895590"><ele></ele><time>2014-6-26T4:59:33Z</time></trkpt>
<trkpt lat="46.25041269" lon="7.01857493"><ele></ele><time>2014-6-26T4:59:36Z</time></trkpt>
<trkpt lat="46.25034011" lon="7.01822843"><ele></ele><time>2014-6-26T4:59:39Z</time></trkpt>
<trkpt lat="46.25021926" lon="7.01791618"><ele></ele><time>2014-6-26T4:59:42Z</time></trkpt>
<trkpt lat="46.25005010" lon="7.01756890"><ele></ele><time>2014-6-26T4:59:45Z</time></trkpt>
<trkpt lat="46.25007329" lon="7.01736044"><ele></ele><time>2014-6-26T4:59:48Z</time></trkpt>
<trkpt lat="46.24996951" lon="7.01662512"><ele></ele><time>2014-6-26T4:59:51Z</time></trkpt>
<trkpt lat="46.24994166" lon="7.01610024"><ele></ele><time>2014-6-26T4:59:54Z</time></trkpt>
<trkpt lat="46.25006166" lon="7.01575266"><ele></ele><time>2014-6-26T4:59:57Z</time></trkpt>
<trkpt lat="46.25025495" lon="7.01551089"><ele></ele><time>2014-6-26T5:0:0Z</time></trkpt>
<trkpt lat="46.25025764" lon="7.01516773"><ele></ele><time>2014-6-26T5:0:3Z</time></trkpt>
<trkpt lat="46.25008649" lon="7.01481618"><ele></ele><time>2014-6-26T5:0:6Z</time></trkpt>
<trkpt lat="46.25001272" lon="7.01446636"><ele></ele><time>2014-6-26T5:0:9Z</time></trkpt>
<trkpt lat="46.25001072" lon="7.01404622"><ele></ele><time>2014-6-26T5:0:12Z</time></trkpt>
<trkpt lat="46.24991482" lon="7.01366456"><ele></ele><time>2014-6-26T5:0:15Z</time></trkpt>
<trkpt lat="46.24979352" lon="7.01331528"><ele></ele><time>2014-6-26T5:0:18Z</time></trkpt>
<trkpt lat="46.24976697" lon="7.01292841"><ele></ele><time>2014-6-26T5:0:21Z</time></trkpt>
<trkpt lat="46.24962236" lon="7.01247607"><ele></ele><time>2014-6-26T5:0:24Z</time></trkpt>
<trkpt lat="46.24957541" lon="7.01213072"><ele></ele><time>2014-6-26T5:0:27Z</time></trkpt>
<trkpt lat="46.24945135" lon="7.01181050"><ele></ele><time>2014-6-26T5:0:30Z</time></trkpt>
<trkpt lat="46.24935515" lon="7.01146293"><ele></ele><time>2014-6-26T5:0:33Z</time></trkpt>
<trkpt lat="46.24933063" lon="7.01107941"><ele></ele><time>2014-6-26T5:0:36Z</time></trkpt>
<trkpt lat="46.24932870" lon="7.01065782"><ele></ele><time>2014-6-26T5:0:39Z</time></trkpt>
<trkpt lat="46.24932726" lon="7.01034142"><ele></ele><time>2014-6-26T5:0:42Z</time></trkpt>
<trkpt lat="46.24932540" lon="7.00998906"><ele></ele><time>2014-6-26T5:0:45Z</time></trkpt>
<trkpt lat="46.24932607" lon="7.00957293"><ele></ele><time>2014-6-26T5:0:48Z</time></trkpt>
<trkpt lat="46.24932674" lon="7.00915693"><ele></ele><time>2014-6-26T5:0:51Z</time></trkpt>
<trkpt lat="46.24932609" lon="7.00880724"><ele></ele><time>2014-6-26T5:0:54Z</time></trkpt>
<trkpt lat="46.24929935" lon="7.00838261"><ele></ele><time>2014-6-26T5:0:57Z</time></trkpt>
<trkpt lat="46.24929724" lon="7.00802864"><ele></ele><time>2014-6-26T5:1:0Z</time></trkpt>
<trkpt lat="46.24929602" lon="7.00760722"><ele></ele><time>2014-6-26T5:1:3Z</time></trkpt>
<trkpt lat="46.24929480" lon="7.00718560"><ele></ele><time>2014-6-26T5:1:6Z</time></trkpt>
<trkpt lat="46.24929411" lon="7.00680024"><ele></ele><time>2014-6-26T5:1:9Z</time></trkpt>
<trkpt lat="46.24929425" lon="7.00641736"><ele></ele><time>2014-6-26T5:1:12Z</time></trkpt>
<trkpt lat="46.24929425" lon="7.00596441"><ele></ele><time>2014-6-26T5:1:15Z</time></trkpt>
<trkpt lat="46.24926987" lon="7.00558037"><ele></ele><time>2014-6-26T5:1:18Z</time></trkpt>
<trkpt lat="46.24926936" lon="7.00529995"><ele></ele><time>2014-6-26T5:1:21Z</time></trkpt>
<trkpt lat="46.24926805" lon="7.00484256"><ele></ele><time>2014-6-26T5:1:24Z</time></trkpt>
<trkpt lat="46.24924375" lon="7.00445871"><ele></ele><time>2014-6-26T5:1:27Z</time></trkpt>
<trkpt lat="46.24907366" lon="7.00407160"><ele></ele><time>2014-6-26T5:1:30Z</time></trkpt>
<trkpt lat="46.24897552" lon="7.00375261"><ele></ele><time>2014-6-26T5:1:33Z</time></trkpt>
<trkpt lat="46.24894962" lon="7.00346764"><ele></ele><time>2014-6-26T5:1:36Z</time></trkpt>
<trkpt lat="46.24899586" lon="7.00311146"><ele></ele><time>2014-6-26T5:1:39Z</time></trkpt>
<trkpt lat="46.24878616" lon="7.00249894"><ele></ele><time>2014-6-26T5:1:42Z</time></trkpt>
<trkpt lat="46.24885883" lon="7.00214933"><ele></ele><time>2014-6-26T5:1:45Z</time></trkpt>
<trkpt lat="46.24912524" lon="7.00204442"><ele></ele><time>2014-6-26T5:1:48Z</time></trkpt>
<trkpt lat="46.24934317" lon="7.00204439"><ele></ele><time>2014-6-26T5:1:51Z</time></trkpt>
<trkpt lat="46.24960896" lon="7.00200911"><ele></ele><time>2014-6-26T5:1:54Z</time></trkpt>
<trkpt lat="46.24985053" lon="7.00186896"><ele></ele><time>2014-6-26T5:1:57Z</time></trkpt>
<trkpt lat="46.25011657" lon="7.00176395"><ele></ele><time>2014-6-26T5:2:0Z</time></trkpt>
<trkpt lat="46.25038254" lon="7.00165890"><ele></ele><time>2014-6-26T5:2:3Z</time></trkpt>
<trkpt lat="46.25062424" lon="7.00151887"><ele></ele><time>2014-6-26T5:2:6Z</time></trkpt>
<trkpt lat="46.25084164" lon="7.00130884"><ele></ele><time>2014-6-26T5:2:9Z</time></trkpt>
<trkpt lat="46.25108347" lon="7.00123887"><ele></ele><time>2014-6-26T5:2:12Z</time></trkpt>
<trkpt lat="46.25109502" lon="7.00133922"><ele></ele><time>2014-6-26T5:2:15Z</time></trkpt>
<trkpt lat="46.25151364" lon="7.00093983"><ele></ele><time>2014-6-26T5:2:18Z</time></trkpt>
<trkpt lat="46.25181747" lon="7.00228211"><ele></ele><time>2014-6-26T5:2:21Z</time></trkpt>
<trkpt lat="46.25461135" lon="7.00159821"><ele></ele><time>2014-6-26T5:2:24Z</time></trkpt>
<trkpt lat="46.25697322" lon="7.00074272"><ele></ele><time>2014-6-26T5:2:27Z</time></trkpt>
<trkpt lat="46.25754476" lon="7.00203994"><ele></ele><time>2014-6-26T5:2:30Z</time></trkpt>
<trkpt lat="46.25838785" lon="7.00083700"><ele></ele><time>2014-6-26T5:2:33Z</time></trkpt>
<trkpt lat="46.26155727" lon="7.00299994"><ele></ele><time>2014-6-26T5:2:36Z</time></trkpt>
<trkpt lat="46.26236155" lon="7.00376129"><ele></ele><time>2014-6-26T5:2:39Z</time></trkpt>
<trkpt lat="46.26351025" lon="7.00397658"><ele></ele><time>2014-6-26T5:2:42Z</time></trkpt>
<trkpt lat="46.26704861" lon="7.00610054"><ele></ele><time>2014-6-26T5:2:45Z</time></trkpt>
<trkpt lat="46.26781156" lon="7.00706462"><ele></ele><time>2014-6-26T5:2:48Z</time></trkpt>
<trkpt lat="46.26814411" lon="7.01040545"><ele></ele><time>2014-6-26T5:2:51Z</time></trkpt>
<trkpt lat="46.26926606" lon="7.01382186"><ele></ele><time>2014-6-26T5:2:54Z</time></trkpt>
<trkpt lat="46.27004788" lon="7.01535204"><ele></ele><time>2014-6-26T5:2:57Z</time></trkpt>
<trkpt lat="46.27069230" lon="7.01610788"><ele></ele><time>2014-6-26T5:3:0Z</time></trkpt>
<trkpt lat="46.27017872" lon="7.01775758"><ele></ele><time>2014-6-26T5:3:3Z</time></trkpt>
<trkpt lat="46.26988378" lon="7.01873964"><ele></ele><time>2014-6-26T5:3:6Z</time></trkpt>
<trkpt lat="46.26670908" lon="7.02116380"><ele></ele><time>2014-6-26T5:3:9Z</time></trkpt>
<trkpt lat="46.26562445" lon="7.02436152"><ele></ele><time>2014-6-26T5:3:12Z</time></trkpt>
<trkpt lat="46.26552291" lon="7.02527778"><ele></ele><time>2014-6-26T5:3:15Z</time></trkpt>
<trkpt lat="46.26529276" lon="7.02609666"><ele></ele><time>2014-6-26T5:3:18Z</time></trkpt>
<trkpt lat="46.26469865" lon="7.02644038"><ele></ele><time>2014-6-26T5:3:21Z</time></trkpt>
<trkpt lat="46.26393855" lon="7.02663090"><ele></ele><time>2014-6-26T5:3:24Z</time></trkpt>
<trkpt lat="46.26321827" lon="7.02678779"><ele></ele><time>2014-6-26T5:3:27Z</time></trkpt>
<trkpt lat="46.26282252" lon="7.02752979"><ele></ele><time>2014-6-26T5:3:30Z</time></trkpt>
<trkpt lat="46.26232434" lon="7.02807475"><ele></ele><time>2014-6-26T5:3:33Z</time></trkpt>
<trkpt lat="46.26153807" lon="7.02810605"><ele></ele><time>2014-6-26T5:3:36Z</time></trkpt>
<trkpt lat="46.26235001" lon="7.02874890"><ele></ele><time>2014-6-26T5:3:39Z</time></trkpt>
<trkpt lat="46.26280753" lon="7.02872042"><ele></ele><time>2014-6-26T5:3:42Z</time></trkpt>
<trkpt lat="46.26286452" lon="7.02893058"><ele></ele><time>2014-6-26T5:3:45Z</time></trkpt>
<trkpt lat="46.26254669" lon="7.02904291"><ele></ele><time>2014-6-26T5:3:48Z</time></trkpt>
<trkpt lat="46.26205210" lon="7.02894275"><ele></ele><time>2014-6-26T5:3:51Z</time></trkpt>
<trkpt lat="46.26164512" lon="7.02901748"><ele></ele><time>2014-6-26T5:3:54Z</time></trkpt>
<trkpt lat="46.26136635" lon="7.02906958"><ele></ele><time>2014-6-26T5:3:57Z</time></trkpt>
<trkpt lat="46.26157120" lon="7.02943569"><ele></ele><time>2014-6-26T5:4:0Z</time></trkpt>
<trkpt lat="46.26201492" lon="7.02951474"><ele></ele><time>2014-6-26T5:4:3Z</time></trkpt>
<trkpt lat="46.26269811" lon="7.02963251"><ele></ele><time>2014-6-26T5:4:6Z</time></trkpt>
<trkpt lat="46.26350157" lon="7.03020648"><ele></ele><time>2014-6-26T5:4:9Z</time></trkpt>
<trkpt lat="46.26413137" lon="7.03128878"><ele></ele><time>2014-6-26T5:4:12Z</time></trkpt>
<trkpt lat="46.26501297" lon="7.03267709"><ele></ele><time>2014-6-26T5:4:15Z</time></trkpt>
<trkpt lat="46.26550823" lon="7.03413362"><ele></ele><time>2014-6-26T5:4:18Z</time></trkpt>
<trkpt lat="46.26572366" lon="7.03565723"><ele></ele><time>2014-6-26T5:4:21Z</time></trkpt>
<trkpt lat="46.26587272" lon="7.03625812"><ele></ele><time>2014-6-26T5:4:24Z</time></trkpt>
<trkpt lat="46.26603318" lon="7.03756889"><ele></ele><time>2014-6-26T5:4:27Z</time></trkpt>
<trkpt lat="46.26572982" lon="7.03866331"><ele></ele><time>2014-6-26T5:4:30Z</time></trkpt>
<trkpt lat="46.26543907" lon="7.03957977"><ele></ele><time>2014-6-26T5:4:33Z</time></trkpt>
<trkpt lat="46.26533103" lon="7.04099476"><ele></ele><time>2014-6-26T5:4:36Z</time></trkpt>
<trkpt lat="46.26555649" lon="7.04253905"><ele></ele><time>2014-6-26T5:4:39Z</time></trkpt>
<trkpt lat="46.26533106" lon="7.04372742"><ele></ele><time>2014-6-26T5:4:42Z</time></trkpt>
<trkpt lat="46.26536740" lon="7.04517688"><ele></ele><time>2014-6-26T5:4:45Z</time></trkpt>
<trkpt lat="46.26516111" lon="7.04652834"><ele></ele><time>2014-6-26T5:4:48Z</time></trkpt>
<trkpt lat="46.26510082" lon="7.04755521"><ele></ele><time>2014-6-26T5:4:51Z</time></trkpt>
<trkpt lat="46.26522266" lon="7.04820660"><ele></ele><time>2014-6-26T5:4:54Z</time></trkpt>
<trkpt lat="46.26524371" lon="7.04912695"><ele></ele><time>2014-6-26T5:4:57Z</time></trkpt>
<trkpt lat="46.26537165" lon="7.05041699"><ele></ele><time>2014-6-26T5:5:0Z</time></trkpt>
<trkpt lat="46.26526962" lon="7.05154530"><ele></ele><time>2014-6-26T5:5:3Z</time></trkpt>
<trkpt lat="46.26552320" lon="7.05260006"><ele></ele><time>2014-6-26T5:5:6Z</time></trkpt>
<trkpt lat="46.26583611" lon="7.05303109"><ele></ele><time>2014-6-26T5:5:9Z</time></trkpt>
<trkpt lat="46.26597553" lon="7.05510349"><ele></ele><time>2014-6-26T5:5:12Z</time></trkpt>
<trkpt lat="46.26598768" lon="7.05620867"><ele></ele><time>2014-6-26T5:5:15Z</time></trkpt>
<trkpt lat="46.26618423" lon="7.05722757"><ele></ele><time>2014-6-26T5:5:18Z</time></trkpt>
<trkpt lat="46.26621079" lon="7.05786052"><ele></ele><time>2014-6-26T5:5:21Z</time></trkpt>
<trkpt lat="46.26627755" lon="7.05852013"><ele></ele><time>2014-6-26T5:5:24Z</time></trkpt>
<trkpt lat="46.26645018" lon="7.05898194"><ele></ele><time>2014-6-26T5:5:27Z</time></trkpt>
<trkpt lat="46.26657198" lon="7.05979709"><ele></ele><time>2014-6-26T5:5:30Z</time></trkpt>
<trkpt lat="46.26650885" lon="7.06124994"><ele></ele><time>2014-6-26T5:5:33Z</time></trkpt>
<trkpt lat="46.26620984" lon="7.06162706"><ele></ele><time>2014-6-26T5:5:36Z</time></trkpt>
<trkpt lat="46.26581997" lon="7.06126720"><ele></ele><time>2014-6-26T5:5:39Z</time></trkpt>
<trkpt lat="46.26579666" lon="7.06030402"><ele></ele><time>2014-6-26T5:5:42Z</time></trkpt>
<trkpt lat="46.26575854" lon="7.05920749"><ele></ele><time>2014-6-26T5:5:45Z</time></trkpt>
<trkpt lat="46.26531670" lon="7.05886901"><ele></ele><time>2014-6-26T5:5:48Z</time></trkpt>
<trkpt lat="46.26480575" lon="7.05896055"><ele></ele><time>2014-6-26T5:5:51Z</time></trkpt>
<trkpt lat="46.26395147" lon="7.05861118"><ele></ele><time>2014-6-26T5:5:54Z</time></trkpt>
<trkpt lat="46.26401927" lon="7.05966674"><ele></ele><time>2014-6-26T5:5:57Z</time></trkpt>
<trkpt lat="46.26389366" lon="7.06153724"><ele></ele><time>2014-6-26T5:6:0Z</time></trkpt>
<trkpt lat="46.26332043" lon="7.06321281"><ele></ele><time>2014-6-26T5:6:3Z</time></trkpt>
<trkpt lat="46.26305392" lon="7.06473029"><ele></ele><time>2014-6-26T5:6:6Z</time></trkpt>
<trkpt lat="46.26259733" lon="7.06540862"><ele></ele><time>2014-6-26T5:6:9Z</time></trkpt>
<trkpt lat="46.26058451" lon="7.06931742"><ele></ele><time>2014-6-26T5:6:12Z</time></trkpt>
<trkpt lat="46.25993694" lon="7.06993417"><ele></ele><time>2014-6-26T5:6:15Z</time></trkpt>
<trkpt lat="46.25880476" lon="7.07011069"><ele></ele><time>2014-6-26T5:6:18Z</time></trkpt>
<trkpt lat="46.25827742" lon="7.07098933"><ele></ele><time>2014-6-26T5:6:21Z</time></trkpt>
<trkpt lat="46.25737829" lon="7.07082314"><ele></ele><time>2014-6-26T5:6:24Z</time></trkpt>
<trkpt lat="46.25692393" lon="7.07097649"><ele></ele><time>2014-6-26T5:6:27Z</time></trkpt>
<trkpt lat="46.25598727" lon="7.07287537"><ele></ele><time>2014-6-26T5:6:30Z</time></trkpt>
<trkpt lat="46.25584936" lon="7.07395678"><ele></ele><time>2014-6-26T5:6:33Z</time></trkpt>
<trkpt lat="46.25541673" lon="7.07454912"><ele></ele><time>2014-6-26T5:6:36Z</time></trkpt>
<trkpt lat="46.25458991" lon="7.07816564"><ele></ele><time>2014-6-26T5:6:39Z</time></trkpt>
<trkpt lat="46.25464840" lon="7.07919685"><ele></ele><time>2014-6-26T5:6:42Z</time></trkpt>
<trkpt lat="46.25420737" lon="7.08045069"><ele></ele><time>2014-6-26T5:6:45Z</time></trkpt>
<trkpt lat="46.25438183" lon="7.08177850"><ele></ele><time>2014-6-26T5:6:48Z</time></trkpt>
<trkpt lat="46.25475322" lon="7.08231885"><ele></ele><time>2014-6-26T5:6:51Z</time></trkpt>
<trkpt lat="46.25558688" lon="7.08243154"><ele></ele><time>2014-6-26T5:6:54Z</time></trkpt>
<trkpt lat="46.25595065" lon="7.08382298"><ele></ele><time>2014-6-26T5:6:57Z</time></trkpt>
<trkpt lat="46.25543588" lon="7.08473889"><ele></ele><time>2014-6-26T5:7:0Z</time></trkpt>
<trkpt lat="46.25530792" lon="7.08493876"><ele></ele><time>2014-6-26T5:7:3Z</time></trkpt>
<trkpt lat="46.25512871" lon="7.08507397"><ele></ele><time>2014-6-26T5:7:6Z</time></trkpt>
<trkpt lat="46.25498333" lon="7.08517775"><ele></ele><time>2014-6-26T5:7:9Z</time></trkpt>
<trkpt lat="46.25479194" lon="7.08531593"><ele></ele><time>2014-6-26T5:7:12Z</time></trkpt>
<trkpt lat="46.25467856" lon="7.08556644"><ele></ele><time>2014-6-26T5:7:15Z</time></trkpt>
<trkpt lat="46.25454302" lon="7.08576919"><ele></ele><time>2014-6-26T5:7:18Z</time></trkpt>
<trkpt lat="46.25443068" lon="7.08594307"><ele></ele><time>2014-6-26T5:7:21Z</time></trkpt>
<trkpt lat="46.25435927" lon="7.08615946"><ele></ele><time>2014-6-26T5:7:24Z</time></trkpt>
<trkpt lat="46.25430254" lon="7.08642195"><ele></ele><time>2014-6-26T5:7:27Z</time></trkpt>
<trkpt lat="46.25423636" lon="7.08658463"><ele></ele><time>2014-6-26T5:7:30Z</time></trkpt>
<trkpt lat="46.25419096" lon="7.08694643"><ele></ele><time>2014-6-26T5:7:33Z</time></trkpt>
<trkpt lat="46.25426376" lon="7.08718630"><ele></ele><time>2014-6-26T5:7:36Z</time></trkpt>
<trkpt lat="46.25428376" lon="7.08740997"><ele></ele><time>2014-6-26T5:7:39Z</time></trkpt>
<trkpt lat="46.25440006" lon="7.08772169"><ele></ele><time>2014-6-26T5:7:42Z</time></trkpt>
<trkpt lat="46.25447657" lon="7.08791395"><ele></ele><time>2014-6-26T5:7:45Z</time></trkpt>
<trkpt lat="46.25451003" lon="7.08811148"><ele></ele><time>2014-6-26T5:7:48Z</time></trkpt>
<trkpt lat="46.25452514" lon="7.08846307"><ele></ele><time>2014-6-26T5:7:51Z</time></trkpt>
<trkpt lat="46.25454289" lon="7.08866252"><ele></ele><time>2014-6-26T5:7:54Z</time></trkpt>
<trkpt lat="46.25449895" lon="7.08897476"><ele></ele><time>2014-6-26T5:7:57Z</time></trkpt>
<trkpt lat="46.25452367" lon="7.08919517"><ele></ele><time>2014-6-26T5:8:0Z</time></trkpt>
<trkpt lat="46.25455054" lon="7.08958830"><ele></ele><time>2014-6-26T5:8:3Z</time></trkpt>
<trkpt lat="46.25462235" lon="7.08980214"><ele></ele><time>2014-6-26T5:8:6Z</time></trkpt>
<trkpt lat="46.25476176" lon="7.09000498"><ele></ele><time>2014-6-26T5:8:9Z</time></trkpt>
<trkpt lat="46.25498211" lon="7.09014395"><ele></ele><time>2014-6-26T5:8:12Z</time></trkpt>
<trkpt lat="46.25517581" lon="7.09016031"><ele></ele><time>2014-6-26T5:8:15Z</time></trkpt>
<trkpt lat="46.25529724" lon="7.09033957"><ele></ele><time>2014-6-26T5:8:18Z</time></trkpt>
<trkpt lat="46.25542249" lon="7.09054099"><ele></ele><time>2014-6-26T5:8:21Z</time></trkpt>
<trkpt lat="46.25550115" lon="7.09079927"><ele></ele><time>2014-6-26T5:8:24Z</time></trkpt>
<trkpt lat="46.25551817" lon="7.09096934"><ele></ele><time>2014-6-26T5:8:27Z</time></trkpt>
<trkpt lat="46.25553733" lon="7.09133611"><ele></ele><time>2014-6-26T5:8:30Z</time></trkpt>
<trkpt lat="46.25556618" lon="7.09162651"><ele></ele><time>2014-6-26T5:8:33Z</time></trkpt>
<trkpt lat="46.25558808" lon="7.09184329"><ele></ele><time>2014-6-26T5:8:36Z</time></trkpt>
<trkpt lat="46.25559815" lon="7.09210981"><ele></ele><time>2014-6-26T5:8:39Z</time></trkpt>
<trkpt lat="46.25562465" lon="7.09240279"><ele></ele><time>2014-6-26T5:8:42Z</time></trkpt>
<trkpt lat="46.25562750" lon="7.09262523"><ele></ele><time>2014-6-26T5:8:45Z</time></trkpt>
<trkpt lat="46.25565167" lon="7.09289352"><ele></ele><time>2014-6-26T5:8:48Z</time></trkpt>
<trkpt lat="46.25567780" lon="7.09318641"><ele></ele><time>2014-6-26T5:8:51Z</time></trkpt>
<trkpt lat="46.25569957" lon="7.09343032"><ele></ele><time>2014-6-26T5:8:54Z</time></trkpt>
<trkpt lat="46.25562597" lon="7.09379419"><ele></ele><time>2014-6-26T5:8:57Z</time></trkpt>
<trkpt lat="46.25559000" lon="7.09397404"><ele></ele><time>2014-6-26T5:9:0Z</time></trkpt>
<trkpt lat="46.25535961" lon="7.09460425"><ele></ele><time>2014-6-26T5:9:3Z</time></trkpt>
<trkpt lat="46.25536303" lon="7.09488388"><ele></ele><time>2014-6-26T5:9:6Z</time></trkpt>
<trkpt lat="46.25538619" lon="7.09517972"><ele></ele><time>2014-6-26T5:9:9Z</time></trkpt>
<trkpt lat="46.25536868" lon="7.09538049"><ele></ele><time>2014-6-26T5:9:12Z</time></trkpt>
<trkpt lat="46.25528718" lon="7.09561340"><ele></ele><time>2014-6-26T5:9:15Z</time></trkpt>
<trkpt lat="46.25514083" lon="7.09588209"><ele></ele><time>2014-6-26T5:9:18Z</time></trkpt>
<trkpt lat="46.25502354" lon="7.09613175"><ele></ele><time>2014-6-26T5:9:21Z</time></trkpt>
<trkpt lat="46.25492036" lon="7.09632356"><ele></ele><time>2014-6-26T5:9:24Z</time></trkpt>
<trkpt lat="46.25479301" lon="7.09661217"><ele></ele><time>2014-6-26T5:9:27Z</time></trkpt>
<trkpt lat="46.25469123" lon="7.09679643"><ele></ele><time>2014-6-26T5:9:30Z</time></trkpt>
<trkpt lat="46.25453672" lon="7.09700393"><ele></ele><time>2014-6-26T5:9:33Z</time></trkpt>
<trkpt lat="46.25441393" lon="7.09718098"><ele></ele><time>2014-6-26T5:9:36Z</time></trkpt>
<trkpt lat="46.25424223" lon="7.09736042"><ele></ele><time>2014-6-26T5:9:39Z</time></trkpt>
<trkpt lat="46.25409996" lon="7.09752775"><ele></ele><time>2014-6-26T5:9:42Z</time></trkpt>
<trkpt lat="46.25402023" lon="7.09774355"><ele></ele><time>2014-6-26T5:9:45Z</time></trkpt>
<trkpt lat="46.25397215" lon="7.09796829"><ele></ele><time>2014-6-26T5:9:48Z</time></trkpt>
<trkpt lat="46.25390900" lon="7.09826992"><ele></ele><time>2014-6-26T5:9:51Z</time></trkpt>
<trkpt lat="46.25387918" lon="7.09847428"><ele></ele><time>2014-6-26T5:9:54Z</time></trkpt>
<trkpt lat="46.25383400" lon="7.09875968"><ele></ele><time>2014-6-26T5:9:57Z</time></trkpt>
<trkpt lat="46.25373221" lon="7.09904340"><ele></ele><time>2014-6-26T5:10:0Z</time></trkpt>
<trkpt lat="46.25369497" lon="7.09924501"><ele></ele><time>2014-6-26T5:10:3Z</time></trkpt>
<trkpt lat="46.25373802" lon="7.09954204"><ele></ele><time>2014-6-26T5:10:6Z</time></trkpt>
<trkpt lat="46.25380896" lon="7.09971207"><ele></ele><time>2014-6-26T5:10:9Z</time></trkpt>
<trkpt lat="46.25392692" lon="7.10017622"><ele></ele><time>2014-6-26T5:10:12Z</time></trkpt>
<trkpt lat="46.25401478" lon="7.10039284"><ele></ele><time>2014-6-26T5:10:15Z</time></trkpt>
<trkpt lat="46.25410259" lon="7.10071262"><ele></ele><time>2014-6-26T5:10:18Z</time></trkpt>
<trkpt lat="46.25414023" lon="7.10094270"><ele></ele><time>2014-6-26T5:10:21Z</time></trkpt>
<trkpt lat="46.25418917" lon="7.10131029"><ele></ele><time>2014-6-26T5:10:24Z</time></trkpt>
<trkpt lat="46.25429292" lon="7.10165599"><ele></ele><time>2014-6-26T5:10:27Z</time></trkpt>
<trkpt lat="46.25438109" lon="7.10187518"><ele></ele><time>2014-6-26T5:10:30Z</time></trkpt>
<trkpt lat="46.25442916" lon="7.10216949"><ele></ele><time>2014-6-26T5:10:33Z</time></trkpt>
<trkpt lat="46.25445253" lon="7.10239959"><ele></ele><time>2014-6-26T5:10:36Z</time></trkpt>
<trkpt lat="46.25448154" lon="7.10275490"><ele></ele><time>2014-6-26T5:10:39Z</time></trkpt>
<trkpt lat="46.25451212" lon="7.10310846"><ele></ele><time>2014-6-26T5:10:42Z</time></trkpt>
<trkpt lat="46.25450453" lon="7.10342183"><ele></ele><time>2014-6-26T5:10:45Z</time></trkpt>
<trkpt lat="46.25446058" lon="7.10371741"><ele></ele><time>2014-6-26T5:10:48Z</time></trkpt>
<trkpt lat="46.25434744" lon="7.10399960"><ele></ele><time>2014-6-26T5:10:51Z</time></trkpt>
<trkpt lat="46.25428317" lon="7.10431591"><ele></ele><time>2014-6-26T5:10:54Z</time></trkpt>
<trkpt lat="46.25430731" lon="7.10457315"><ele></ele><time>2014-6-26T5:10:57Z</time></trkpt>
<trkpt lat="46.25433113" lon="7.10483150"><ele></ele><time>2014-6-26T5:11:0Z</time></trkpt>
<trkpt lat="46.25435572" lon="7.10513424"><ele></ele><time>2014-6-26T5:11:3Z</time></trkpt>
<trkpt lat="46.25437273" lon="7.10534352"><ele></ele><time>2014-6-26T5:11:6Z</time></trkpt>
<trkpt lat="46.25439855" lon="7.10566763"><ele></ele><time>2014-6-26T5:11:9Z</time></trkpt>
<trkpt lat="46.25437130" lon="7.10593150"><ele></ele><time>2014-6-26T5:11:12Z</time></trkpt>
<trkpt lat="46.25432017" lon="7.10612375"><ele></ele><time>2014-6-26T5:11:15Z</time></trkpt>
<trkpt lat="46.25426117" lon="7.10642873"><ele></ele><time>2014-6-26T5:11:18Z</time></trkpt>
<trkpt lat="46.25423799" lon="7.10654725"><ele></ele><time>2014-6-26T5:11:21Z</time></trkpt>
<trkpt lat="46.25417234" lon="7.10693046"><ele></ele><time>2014-6-26T5:11:24Z</time></trkpt>
<trkpt lat="46.25410061" lon="7.10725627"><ele></ele><time>2014-6-26T5:11:27Z</time></trkpt>
<trkpt lat="46.25405685" lon="7.10733786"><ele></ele><time>2014-6-26T5:11:30Z</time></trkpt>
<trkpt lat="46.25395984" lon="7.10769537"><ele></ele><time>2014-6-26T5:11:33Z</time></trkpt>
<trkpt lat="46.25394792" lon="7.10794406"><ele></ele><time>2014-6-26T5:11:36Z</time></trkpt>
<trkpt lat="46.25390314" lon="7.10818635"><ele></ele><time>2014-6-26T5:11:39Z</time></trkpt>
<trkpt lat="46.25388278" lon="7.10850278"><ele></ele><time>2014-6-26T5:11:42Z</time></trkpt>
<trkpt lat="46.25380793" lon="7.10876297"><ele></ele><time>2014-6-26T5:11:45Z</time></trkpt>
<trkpt lat="46.25374380" lon="7.10895044"><ele></ele><time>2014-6-26T5:11:48Z</time></trkpt>
<trkpt lat="46.25365361" lon="7.10920414"><ele></ele><time>2014-6-26T5:11:51Z</time></trkpt>
<trkpt lat="46.25348865" lon="7.10932055"><ele></ele><time>2014-6-26T5:11:54Z</time></trkpt>
<trkpt lat="46.25331650" lon="7.10933423"><ele></ele><time>2014-6-26T5:11:57Z</time></trkpt>
<trkpt lat="46.25317632" lon="7.10934878"><ele></ele><time>2014-6-26T5:12:0Z</time></trkpt>
<trkpt lat="46.25297486" lon="7.10936838"><ele></ele><time>2014-6-26T5:12:3Z</time></trkpt>
<trkpt lat="46.25280531" lon="7.10938501"><ele></ele><time>2014-6-26T5:12:6Z</time></trkpt>
<trkpt lat="46.25263722" lon="7.10939703"><ele></ele><time>2014-6-26T5:12:9Z</time></trkpt>
<trkpt lat="46.25248389" lon="7.10941683"><ele></ele><time>2014-6-26T5:12:12Z</time></trkpt>
<trkpt lat="46.25238285" lon="7.10926675"><ele></ele><time>2014-6-26T5:12:15Z</time></trkpt>
<trkpt lat="46.25221099" lon="7.10926977"><ele></ele><time>2014-6-26T5:12:18Z</time></trkpt>
<trkpt lat="46.25223399" lon="7.10947446"><ele></ele><time>2014-6-26T5:12:21Z</time></trkpt>
<trkpt lat="46.25236069" lon="7.10961580"><ele></ele><time>2014-6-26T5:12:24Z</time></trkpt>
<trkpt lat="46.25252337" lon="7.10967137"><ele></ele><time>2014-6-26T5:12:27Z</time></trkpt>
<trkpt lat="46.25264957" lon="7.11009281"><ele></ele><time>2014-6-26T5:12:30Z</time></trkpt>
<trkpt lat="46.25287576" lon="7.11020343"><ele></ele><time>2014-6-26T5:12:33Z</time></trkpt>
<trkpt lat="46.25302623" lon="7.11048738"><ele></ele><time>2014-6-26T5:12:36Z</time></trkpt>
<trkpt lat="46.25304270" lon="7.11069631"><ele></ele><time>2014-6-26T5:12:39Z</time></trkpt>
<trkpt lat="46.25300052" lon="7.11091325"><ele></ele><time>2014-6-26T5:12:42Z</time></trkpt>
<trkpt lat="46.25294168" lon="7.11110329"><ele></ele><time>2014-6-26T5:12:45Z</time></trkpt>
<trkpt lat="46.25279171" lon="7.11112847"><ele></ele><time>2014-6-26T5:12:48Z</time></trkpt>
<trkpt lat="46.25263883" lon="7.11115134"><ele></ele><time>2014-6-26T5:12:51Z</time></trkpt>
<trkpt lat="46.25248026" lon="7.11111012"><ele></ele><time>2014-6-26T5:12:54Z</time></trkpt>
<trkpt lat="46.25230451" lon="7.11104993"><ele></ele><time>2014-6-26T5:12:57Z</time></trkpt>
<trkpt lat="46.25218617" lon="7.11093583"><ele></ele><time>2014-6-26T5:13:0Z</time></trkpt>
<trkpt lat="46.25202252" lon="7.11082651"><ele></ele><time>2014-6-26T5:13:3Z</time></trkpt>
<trkpt lat="46.25189010" lon="7.11070980"><ele></ele><time>2014-6-26T5:13:6Z</time></trkpt>
<trkpt lat="46.25184300" lon="7.11048524"><ele></ele><time>2014-6-26T5:13:9Z</time></trkpt>
</trkseg></trk></gpx>